Del Norte — WDC2280 — position and weather

sailwx.info

Track history (hours):
 
Tides and Currents Weather Stations Pressure Air Temp Water Temp Dewpoint Dewpoint Depression Visibility Wind Speed Wind Dir Waves Ship Positions

Del Norte

Owner: Golden Gate Bridge,Hwy & Transportation District, Larkspur, CA. More information available from US FCC via Universal Licensing System and Coast Guard Vessel Documentation Center.

Last reported at 2015-Mar-12 19:33 UTC. Time now 2015-Mar-31 02:07 UTC.
Position N 37°57' W 122°31'.
Warning: this ship's position is 18 days out of date.

Length 48 m.

Type: High speed craft. MMSI: 366990520.

Date/timePositionNaut miles runAvg speedWind from/ knotsBaromVisibWave heightAir tempDewpointWater temp
2015-Mar-12 19:33N 37°57' W 122°31'0 0.1
2015-Mar-12 18:33N 37°57' W 122°30'0 0.1
2015-Mar-12 17:33N 37°57' W 122°31'  
2015-Mar-09 02:10N 37°57' W 122°31'1117.2
2015-Mar-09 01:33N 37°48' W 122°24'0 0.1
2015-Mar-09 00:33N 37°48' W 122°24'1110.5
2015-Mar-08 23:33N 37°57' W 122°31'1110.6
2015-Mar-08 22:33N 37°48' W 122°24'0 0.0
2015-Mar-08 21:33N 37°48' W 122°24'1110.5
2015-Mar-08 20:34N 37°57' W 122°31'1110.5
2015-Mar-08 19:33N 37°48' W 122°24'1010.5
2015-Mar-08 18:33N 37°57' W 122°31'0 0.0
2015-Mar-08 03:12N 37°57' W 122°31'1016.3
2015-Mar-08 02:34N 37°48' W 122°23'0 0.1
2015-Mar-08 01:33N 37°48' W 122°24'1110.5
2015-Mar-08 00:34N 37°57' W 122°31'1110.5
2015-Mar-07 23:33N 37°48' W 122°24'0 0.0
2015-Mar-07 22:33N 37°48' W 122°24'1110.5
2015-Mar-07 21:33N 37°57' W 122°31'1110.5
2015-Mar-07 20:33N 37°48' W 122°24'1010.5
2015-Mar-07 19:33N 37°57' W 122°31'0 0.0
2015-Mar-07 04:17N 37°57' W 122°31'5 7.4
2015-Mar-07 03:34N 37°53' W 122°25'5 5.3
2015-Mar-07 02:33N 37°57' W 122°30'7 7.2
2015-Mar-07 01:34N 37°51' W 122°25'3 3.4
2015-Mar-07 00:33N 37°48' W 122°24'1010.5
2015-Mar-06 23:34N 37°57' W 122°30'3 2.9
2015-Mar-06 22:34N 37°55' W 122°27'3 3.1
2015-Mar-06 21:33N 37°57' W 122°31'0 0.0
2015-Mar-06 20:34N 37°57' W 122°31'0 0.0
2015-Mar-06 19:34N 37°57' W 122°31'6 6.1
2015-Mar-06 18:34N 37°52' W 122°25'5 5.0
2015-Mar-06 17:33N 37°56' W 122°29'1 1.0
2015-Mar-06 16:34N 37°56' W 122°28'9 8.8
2015-Mar-06 15:33N 37°48' W 122°24'5 5.0
2015-Mar-06 14:34N 37°53' W 122°25'6 6.0
2015-Mar-06 13:33N 37°57' W 122°30'  
Track history (hours):
 
Tides and Currents Weather Stations Pressure Air Temp Water Temp Dewpoint Dewpoint Depression Visibility Wind Speed Wind Dir Waves Ship Positions

Del Norte

Owner: Golden Gate Bridge,Hwy & Transportation District, Larkspur, CA. More information available from US FCC via Universal Licensing System and Coast Guard Vessel Documentation Center.

Last reported at 2015-Mar-12 19:33 UTC. Time now 2015-Mar-31 02:07 UTC.
Position N 37°57' W 122°31'.
Warning: this ship's position is 18 days out of date.

Length 48 m.

Type: High speed craft. MMSI: 366990520.

Date/timePositionNaut miles runAvg speedWind from/ knotsBaromVisibWave heightAir tempDewpointWater temp
2015-Mar-12 19:33N 37°57' W 122°31'0 0.1
2015-Mar-12 18:33N 37°57' W 122°30'0 0.1
2015-Mar-12 17:33N 37°57' W 122°31'  
2015-Mar-09 02:10N 37°57' W 122°31'1117.2
2015-Mar-09 01:33N 37°48' W 122°24'0 0.1
2015-Mar-09 00:33N 37°48' W 122°24'1110.5
2015-Mar-08 23:33N 37°57' W 122°31'1110.6
2015-Mar-08 22:33N 37°48' W 122°24'0 0.0
2015-Mar-08 21:33N 37°48' W 122°24'1110.5
2015-Mar-08 20:34N 37°57' W 122°31'1110.5
2015-Mar-08 19:33N 37°48' W 122°24'1010.5
2015-Mar-08 18:33N 37°57' W 122°31'0 0.0
2015-Mar-08 03:12N 37°57' W 122°31'1016.3
2015-Mar-08 02:34N 37°48' W 122°23'0 0.1
2015-Mar-08 01:33N 37°48' W 122°24'1110.5
2015-Mar-08 00:34N 37°57' W 122°31'1110.5
2015-Mar-07 23:33N 37°48' W 122°24'0 0.0
2015-Mar-07 22:33N 37°48' W 122°24'1110.5
2015-Mar-07 21:33N 37°57' W 122°31'1110.5
2015-Mar-07 20:33N 37°48' W 122°24'1010.5
2015-Mar-07 19:33N 37°57' W 122°31'0 0.0
2015-Mar-07 04:17N 37°57' W 122°31'5 7.4
2015-Mar-07 03:34N 37°53' W 122°25'5 5.3
2015-Mar-07 02:33N 37°57' W 122°30'7 7.2
2015-Mar-07 01:34N 37°51' W 122°25'3 3.4
2015-Mar-07 00:33N 37°48' W 122°24'1010.5
2015-Mar-06 23:34N 37°57' W 122°30'3 2.9
2015-Mar-06 22:34N 37°55' W 122°27'3 3.1
2015-Mar-06 21:33N 37°57' W 122°31'0 0.0
2015-Mar-06 20:34N 37°57' W 122°31'0 0.0
2015-Mar-06 19:34N 37°57' W 122°31'6 6.1
2015-Mar-06 18:34N 37°52' W 122°25'5 5.0
2015-Mar-06 17:33N 37°56' W 122°29'1 1.0
2015-Mar-06 16:34N 37°56' W 122°28'9 8.8
2015-Mar-06 15:33N 37°48' W 122°24'5 5.0
2015-Mar-06 14:34N 37°53' W 122°25'6 6.0
2015-Mar-06 13:33N 37°57' W 122°30'  

Dump ship's entire track history